Time;durP1;ratioP1;P1;durP2;ratioP2;P2;SDS_P1;SDS_P2;PMS_P1;PMS_P2;Temp;Humidity;BMP_temperature;BMP_pressure;BME280_temperature;BME280_humidity;BME280_pressure;Samples;Min_cycle;Max_cycle;Signal;HPM_P1;HPM_P2
2021/04/13 00:00:25;;;;;;;4.35;0.85;;;4.30;88.20;;;;;;6245501;23;20020;-81
2021/04/13 00:02:53;;;;;;;5.40;1.13;;;4.30;88.40;;;;;;6245617;22;20012;-82
2021/04/13 00:05:32;;;;;;;3.90;1.02;;;4.30;88.30;;;;;;6246096;23;20016;-82
2021/04/13 00:08:01;;;;;;;5.00;1.10;;;4.20;88.60;;;;;;6244453;23;20028;-81
2021/04/13 00:10:47;;;;;;;4.28;1.10;;;4.20;88.70;;;;;;6243835;23;20464;-81
2021/04/13 00:13:14;;;;;;;6.97;1.13;;;4.20;88.70;;;;;;6244358;23;20039;-81
2021/04/13 00:16:05;;;;;;;4.65;0.90;;;4.20;89.20;;;;;;6244025;23;20091;-81
2021/04/13 00:18:42;;;;;;;6.15;0.98;;;4.20;89.50;;;;;;6244842;23;20031;-80
2021/04/13 00:21:25;;;;;;;5.60;1.00;;;4.20;89.10;;;;;;6243571;23;20192;-82
2021/04/13 00:23:52;;;;;;;6.63;0.93;;;4.10;88.90;;;;;;6244567;23;20027;-80
2021/04/13 00:26:28;;;;;;;5.60;1.08;;;4.10;88.80;;;;;;6243467;22;20031;-81
2021/04/13 00:28:55;;;;;;;5.57;1.02;;;4.10;89.50;;;;;;6244171;23;20023;-82
2021/04/13 00:31:42;;;;;;;4.47;0.90;;;4.10;89.70;;;;;;6244180;23;20017;-81
2021/04/13 00:34:11;;;;;;;5.38;1.08;;;4.10;90.00;;;;;;6244452;23;20483;-81
2021/04/13 00:36:40;;;;;;;4.47;1.00;;;4.10;90.00;;;;;;6243976;23;20020;-80
2021/04/13 00:39:46;;;;;;;7.70;1.20;;;4.10;90.00;;;;;;6245021;23;20023;-82
2021/04/13 00:42:23;;;;;;;6.03;0.90;;;4.10;90.20;;;;;;6230468;23;20012;-82
2021/04/13 00:44:53;;;;;;;5.35;1.10;;;4.00;90.00;;;;;;6245306;23;20016;-82
2021/04/13 00:47:44;;;;;;;7.45;1.27;;;4.00;89.70;;;;;;6244214;23;20020;-82
2021/04/13 00:50:23;;;;;;;5.20;1.25;;;4.00;89.70;;;;;;6243219;23;20024;-80
2021/04/13 00:52:56;;;;;;;6.30;1.05;;;4.00;89.60;;;;;;6244538;23;20039;-81
2021/04/13 00:55:30;;;;;;;7.82;1.38;;;3.90;89.40;;;;;;6244447;23;20134;-81
2021/04/13 00:58:17;;;;;;;6.63;1.20;;;3.90;89.50;;;;;;6243175;23;20119;-81
2021/04/13 01:00:49;;;;;;;6.05;1.20;;;3.90;89.70;;;;;;6243456;23;20321;-80
2021/04/13 01:03:16;;;;;;;6.20;1.13;;;3.90;90.00;;;;;;6241891;23;20452;-81
2021/04/13 01:05:57;;;;;;;5.88;1.00;;;3.90;89.50;;;;;;6242647;23;20020;-79
2021/04/13 01:08:54;;;;;;;5.93;1.08;;;3.90;89.30;;;;;;6244078;23;20070;-81
2021/04/13 01:11:26;;;;;;;2.90;0.88;;;3.80;89.30;;;;;;6243472;23;20020;-80
2021/04/13 01:13:54;;;;;;;4.10;1.08;;;3.80;89.40;;;;;;6244482;23;20035;-81
2021/04/13 01:16:37;;;;;;;5.30;1.00;;;3.80;89.40;;;;;;6243538;23;20020;-81
2021/04/13 01:19:22;;;;;;;8.65;1.17;;;3.80;89.40;;;;;;6242744;23;20048;-80
2021/04/13 01:22:21;;;;;;;4.45;1.02;;;3.80;89.60;;;;;;6244478;23;20087;-82
2021/04/13 01:24:52;;;;;;;8.57;1.30;;;3.70;89.30;;;;;;6243566;23;20020;-81
2021/04/13 01:27:21;;;;;;;4.45;0.95;;;3.70;89.40;;;;;;6243452;23;20034;-81
2021/04/13 01:29:50;;;;;;;8.77;1.00;;;3.70;89.30;;;;;;6243545;23;20086;-82
2021/04/13 01:32:17;;;;;;;5.03;1.00;;;3.70;89.20;;;;;;6242894;23;20023;-81
2021/04/13 01:34:50;;;;;;;6.22;1.10;;;3.70;89.00;;;;;;6244206;23;20020;-81
2021/04/13 01:37:44;;;;;;;3.42;0.90;;;3.70;89.10;;;;;;6245083;23;20016;-82
2021/04/13 01:42:38;;;;;;;7.50;1.23;;;3.60;88.70;;;;;;6245790;23;20016;-79
2021/04/13 01:45:08;;;;;;;8.07;1.17;;;3.60;88.60;;;;;;6245734;23;20143;-79
2021/04/13 01:47:38;;;;;;;7.72;1.10;;;3.60;88.90;;;;;;6244272;23;20444;-79
2021/04/13 01:50:08;;;;;;;5.95;0.98;;;3.60;89.10;;;;;;6245725;23;20016;-79
2021/04/13 01:52:44;;;;;;;9.10;1.25;;;3.60;89.30;;;;;;6244748;23;20020;-80
2021/04/13 01:55:25;;;;;;;7.65;1.20;;;3.50;89.60;;;;;;6245066;23;20020;-80
2021/04/13 01:58:09;;;;;;;10.52;1.00;;;3.50;89.40;;;;;;6245830;23;20107;-79
2021/04/13 02:00:50;;;;;;;9.38;1.40;;;3.50;89.50;;;;;;6220238;23;20078;-82
2021/04/13 02:03:29;;;;;;;8.40;1.17;;;3.50;89.50;;;;;;6247516;23;20016;-80
2021/04/13 02:06:01;;;;;;;7.03;1.13;;;3.50;90.00;;;;;;6247503;23;20016;-79
2021/04/13 02:08:36;;;;;;;6.95;1.17;;;3.50;90.00;;;;;;6246149;23;20448;-80
2021/04/13 02:11:20;;;;;;;6.20;1.13;;;3.50;90.10;;;;;;6247774;23;20016;-81
2021/04/13 02:13:57;;;;;;;5.22;1.02;;;3.50;90.20;;;;;;6246801;23;20020;-80
2021/04/13 02:16:50;;;;;;;6.03;1.15;;;3.50;90.40;;;;;;6247057;23;20459;-81
2021/04/13 02:19:17;;;;;;;9.35;1.38;;;3.40;90.30;;;;;;6247274;23;20329;-80
2021/04/13 02:21:51;;;;;;;5.82;1.10;;;3.40;90.30;;;;;;6246647;23;20091;-80
2021/04/13 02:24:20;;;;;;;6.90;1.40;;;3.40;90.50;;;;;;6247283;23;20040;-80
2021/04/13 02:26:52;;;;;;;4.40;0.95;;;3.40;90.60;;;;;;6247425;23;20016;-81
2021/04/13 02:29:24;;;;;;;4.10;1.10;;;3.40;90.60;;;;;;6245605;23;20024;-79
2021/04/13 02:32:00;;;;;;;8.23;1.10;;;3.40;90.60;;;;;;6247496;23;20012;-80
2021/04/13 02:34:36;;;;;;;3.60;1.02;;;3.40;90.60;;;;;;6247185;23;20044;-80
2021/04/13 02:37:18;;;;;;;7.15;1.25;;;3.40;90.60;;;;;;6247507;23;20018;-80
2021/04/13 02:39:53;;;;;;;8.57;1.17;;;3.40;90.70;;;;;;6247295;23;20051;-80
2021/04/13 02:42:23;;;;;;;6.05;1.10;;;3.40;90.60;;;;;;6245658;23;20027;-80
2021/04/13 02:45:05;;;;;;;3.22;0.82;;;3.40;90.50;;;;;;6247276;23;20017;-80
2021/04/13 02:47:43;;;;;;;5.68;1.20;;;3.30;90.50;;;;;;6247112;23;20452;-79
2021/04/13 02:50:11;;;;;;;4.90;0.90;;;3.30;90.60;;;;;;6246474;23;20016;-80
2021/04/13 02:52:48;;;;;;;5.35;1.20;;;3.30;90.50;;;;;;6247213;23;20013;-81
2021/04/13 02:55:28;;;;;;;8.45;1.20;;;3.30;90.50;;;;;;6246502;22;20020;-81
2021/04/13 02:57:55;;;;;;;4.90;1.10;;;3.20;90.40;;;;;;6245739;23;20024;-81
2021/04/13 03:00:23;;;;;;;5.55;1.10;;;3.20;90.30;;;;;;6246458;23;20020;-81
2021/04/13 03:02:55;;;;;;;5.78;1.50;;;3.20;90.30;;;;;;6246136;23;20070;-80
2021/04/13 03:05:24;;;;;;;8.00;1.20;;;3.10;90.30;;;;;;6246890;23;20020;-80
2021/04/13 03:07:55;;;;;;;5.57;1.13;;;3.10;90.40;;;;;;6247345;23;20012;-81
2021/04/13 03:10:31;;;;;;;6.50;1.13;;;3.10;90.40;;;;;;6245871;23;20333;-81
2021/04/13 03:12:59;;;;;;;6.93;1.65;;;3.10;90.40;;;;;;6246605;23;20016;-81
2021/04/13 03:15:32;;;;;;;6.20;1.10;;;3.10;90.50;;;;;;6246690;23;20024;-81
2021/04/13 03:18:01;;;;;;;7.38;1.02;;;3.10;90.70;;;;;;6245659;23;20050;-81
2021/04/13 03:20:37;;;;;;;5.93;1.10;;;3.00;90.60;;;;;;6246785;23;20020;-81
2021/04/13 03:23:05;;;;;;;7.65;1.40;;;3.10;90.50;;;;;;6247100;23;20062;-80
2021/04/13 03:25:34;;;;;;;8.30;1.27;;;3.00;90.50;;;;;;6245352;23;20470;-81
2021/04/13 03:28:03;;;;;;;7.70;1.30;;;3.00;90.60;;;;;;6246848;23;20016;-80
2021/04/13 03:30:33;;;;;;;5.63;1.10;;;3.00;90.70;;;;;;6246468;23;20026;-81
2021/04/13 03:33:24;;;;;;;6.65;1.20;;;2.90;90.60;;;;;;6245860;23;20020;-81
2021/04/13 03:35:50;;;;;;;7.53;1.20;;;2.90;90.70;;;;;;6246464;22;20082;-81
2021/04/13 03:41:00;;;;;;;7.47;1.10;;;2.90;90.60;;;;;;6238318;23;20024;-80
2021/04/13 03:43:31;;;;;;;6.88;1.23;;;2.90;90.70;;;;;;6246450;23;20016;-81
2021/04/13 03:46:08;;;;;;;5.47;1.05;;;2.90;90.70;;;;;;6246115;23;20016;-80
2021/04/13 03:48:35;;;;;;;8.82;1.17;;;2.90;90.70;;;;;;6245925;23;20020;-82
2021/04/13 03:51:02;;;;;;;5.78;1.05;;;2.90;90.70;;;;;;6246796;23;20014;-79
2021/04/13 03:53:40;;;;;;;5.10;1.05;;;2.90;90.70;;;;;;6245113;23;20020;-79
2021/04/13 03:56:13;;;;;;;7.38;1.60;;;2.90;90.80;;;;;;6246839;23;20353;-80
2021/04/13 03:58:47;;;;;;;8.45;1.30;;;2.90;90.90;;;;;;6246989;23;20016;-82
2021/04/13 04:01:17;;;;;;;5.68;1.13;;;2.90;90.80;;;;;;6245190;23;20475;-80
2021/04/13 04:03:46;;;;;;;8.02;1.30;;;2.80;90.70;;;;;;6246293;23;20388;-80
2021/04/13 04:06:38;;;;;;;6.32;1.23;;;2.90;90.70;;;;;;6245475;23;20336;-80
2021/04/13 04:09:30;;;;;;;7.60;1.55;;;2.90;90.70;;;;;;6246738;23;20020;-80
2021/04/13 04:12:19;;;;;;;10.15;1.55;;;2.80;90.70;;;;;;6240880;23;20472;-81
2021/04/13 04:15:10;;;;;;;7.97;1.30;;;2.90;90.60;;;;;;6245878;23;20070;-81
2021/04/13 04:17:38;;;;;;;8.40;1.42;;;2.80;90.40;;;;;;6246499;23;20019;-81
2021/04/13 04:20:09;;;;;;;10.48;1.45;;;2.80;90.30;;;;;;6245263;23;20045;-80
2021/04/13 04:22:47;;;;;;;5.43;1.17;;;2.80;90.40;;;;;;6246375;23;20016;-81
2021/04/13 04:25:36;;;;;;;6.00;1.08;;;2.80;90.30;;;;;;6246099;23;20016;-80
2021/04/13 04:28:20;;;;;;;6.05;1.30;;;2.80;90.30;;;;;;6245816;23;20019;-80
2021/04/13 04:31:37;;;;;;;6.85;1.45;;;2.80;90.30;;;;;;6243745;23;20054;-80
2021/04/13 04:34:15;;;;;;;5.10;1.50;;;2.70;90.10;;;;;;6244703;23;20108;-79
2021/04/13 04:36:47;;;;;;;6.97;1.42;;;2.70;90.20;;;;;;6244394;23;20440;-80
2021/04/13 04:39:33;;;;;;;9.85;1.33;;;2.70;90.20;;;;;;6243757;23;20020;-81
2021/04/13 04:42:21;;;;;;;6.97;1.20;;;2.70;90.10;;;;;;6243307;23;20119;-80
2021/04/13 04:45:09;;;;;;;7.50;1.65;;;2.70;90.10;;;;;;6245232;23;20087;-81
2021/04/13 04:47:36;;;;;;;6.45;1.23;;;2.60;90.00;;;;;;6218561;23;20016;-80
2021/04/13 04:50:06;;;;;;;6.95;1.20;;;2.60;90.00;;;;;;6244906;23;20067;-81
2021/04/13 04:52:31;;;;;;;10.50;1.70;;;2.60;90.00;;;;;;6231877;23;20339;-80
2021/04/13 04:54:57;;;;;;;6.47;1.20;;;2.60;90.00;;;;;;6245289;23;20020;-80
2021/04/13 04:57:26;;;;;;;8.70;1.60;;;2.60;90.00;;;;;;6243630;23;20101;-80
2021/04/13 04:59:57;;;;;;;8.70;1.35;;;2.60;90.00;;;;;;6244713;23;20016;-79
2021/04/13 05:02:23;;;;;;;5.97;1.25;;;2.50;89.80;;;;;;6243458;23;20016;-79
2021/04/13 05:08:07;;;;;;;8.70;1.38;;;2.60;90.00;;;;;;6177437;23;20444;-81
2021/04/13 05:10:33;;;;;;;7.07;1.30;;;2.50;90.00;;;;;;6242815;23;20093;-80
2021/04/13 05:13:40;;;;;;;10.65;1.48;;;2.50;90.10;;;;;;6244142;23;20087;-80
2021/04/13 05:16:17;;;;;;;8.48;1.40;;;2.50;90.20;;;;;;6064306;23;20066;-80
2021/04/13 05:18:42;;;;;;;8.93;1.40;;;2.50;90.30;;;;;;6233594;23;20383;-81
2021/04/13 05:21:09;;;;;;;8.00;1.88;;;2.50;90.40;;;;;;6244901;23;20020;-81
2021/04/13 05:23:34;;;;;;;9.60;1.42;;;2.50;90.50;;;;;;6243352;23;20035;-80
2021/04/13 05:26:03;;;;;;;8.25;1.20;;;2.50;90.50;;;;;;6245659;23;20020;-81
2021/04/13 05:28:28;;;;;;;7.40;1.23;;;2.50;90.60;;;;;;6245435;23;20051;-80
2021/04/13 05:30:59;;;;;;;6.22;1.33;;;2.50;90.50;;;;;;6219386;23;20066;-80
2021/04/13 05:33:25;;;;;;;6.75;1.33;;;2.50;90.50;;;;;;6217958;23;20100;-81
2021/04/13 05:35:56;;;;;;;11.93;1.90;;;2.50;90.60;;;;;;6245901;23;20054;-80
2021/04/13 05:38:34;;;;;;;11.13;1.67;;;2.50;90.60;;;;;;6244315;23;20019;-81
2021/04/13 05:41:11;;;;;;;9.48;2.00;;;2.50;90.50;;;;;;6243365;23;20063;-79
2021/04/13 05:43:52;;;;;;;7.53;1.40;;;2.50;90.40;;;;;;6245573;23;20024;-79
2021/04/13 05:46:26;;;;;;;10.57;1.80;;;2.50;90.30;;;;;;6244217;23;20043;-79
2021/04/13 05:48:56;;;;;;;8.38;1.73;;;2.60;90.20;;;;;;6245248;23;20020;-80
2021/04/13 05:51:21;;;;;;;11.18;1.80;;;2.50;90.20;;;;;;6244304;23;20464;-79
2021/04/13 05:53:50;;;;;;;15.65;1.63;;;2.60;90.20;;;;;;6243748;23;20027;-79
2021/04/13 05:56:18;;;;;;;14.77;1.70;;;2.60;90.20;;;;;;6228018;23;20023;-78
2021/04/13 05:58:51;;;;;;;11.10;2.05;;;2.60;90.30;;;;;;6237536;23;20017;-78
2021/04/13 06:01:31;;;;;;;8.43;1.40;;;2.60;90.20;;;;;;6242486;23;20016;-80
2021/04/13 06:04:10;;;;;;;11.60;2.10;;;2.60;90.10;;;;;;6217261;23;20368;-80
2021/04/13 06:06:45;;;;;;;11.00;1.77;;;2.60;90.20;;;;;;6243087;23;20023;-80
2021/04/13 06:09:11;;;;;;;14.38;1.90;;;2.70;90.20;;;;;;6237928;23;20031;-79
2021/04/13 06:11:40;;;;;;;11.10;1.70;;;2.70;90.10;;;;;;6216539;23;20016;-79
2021/04/13 06:14:08;;;;;;;18.10;2.38;;;2.80;90.40;;;;;;6242924;23;20125;-80
2021/04/13 06:16:36;;;;;;;12.52;1.73;;;2.80;90.50;;;;;;6244299;23;20012;-80
2021/04/13 06:19:04;;;;;;;12.40;2.25;;;2.90;90.50;;;;;;6244506;23;20455;-78
2021/04/13 06:21:33;;;;;;;10.00;1.58;;;2.90;90.40;;;;;;6243321;23;20361;-78
2021/04/13 06:24:00;;;;;;;8.93;1.88;;;3.00;90.40;;;;;;6244631;23;20464;-80
2021/04/13 06:26:26;;;;;;;11.57;1.80;;;3.10;90.40;;;;;;6243840;23;20095;-77
2021/04/13 06:28:52;;;;;;;14.23;2.08;;;3.10;90.40;;;;;;6243658;23;20336;-78
2021/04/13 06:31:18;;;;;;;18.25;2.30;;;3.20;90.50;;;;;;6243783;23;20448;-78
2021/04/13 06:33:44;;;;;;;9.95;1.75;;;3.30;90.40;;;;;;6244037;23;20020;-77
2021/04/13 06:36:16;;;;;;;14.10;2.15;;;3.40;90.40;;;;;;6244467;23;20017;-77
2021/04/13 06:38:43;;;;;;;10.98;1.85;;;3.50;90.50;;;;;;6244982;23;20040;-76
2021/04/13 06:41:26;;;;;;;10.27;1.58;;;3.60;90.40;;;;;;6243021;23;20528;-77
2021/04/13 06:43:58;;;;;;;12.83;1.87;;;3.60;90.20;;;;;;6245303;23;20316;-78
2021/04/13 06:46:39;;;;;;;10.05;1.60;;;3.70;90.30;;;;;;6246453;23;20016;-77
2021/04/13 06:49:33;;;;;;;9.80;1.60;;;3.80;90.20;;;;;;6245787;23;20020;-79
2021/04/13 06:52:05;;;;;;;;;;;3.90;90.10;;;;;;6247352;23;20019;-79
2021/04/13 06:54:41;;;;;;;13.45;2.00;;;4.00;90.30;;;;;;6218783;23;19922;-81
2021/04/13 06:57:29;;;;;;;14.63;2.00;;;4.10;90.00;;;;;;6243824;23;21073;-79
2021/04/13 07:00:39;;;;;;;11.20;1.70;;;4.20;90.00;;;;;;6246061;23;20019;-79
2021/04/13 07:03:22;;;;;;;11.60;1.73;;;4.30;89.90;;;;;;6184620;23;20027;-79
2021/04/13 07:05:53;;;;;;;;;;;4.40;90.00;;;;;;6246884;23;20091;-78
2021/04/13 07:08:40;;;;;;;12.15;1.65;;;4.50;89.80;;;;;;6239678;23;19997;-79
2021/04/13 07:11:26;;;;;;;12.57;1.70;;;4.60;89.30;;;;;;6243252;23;20340;-79
2021/04/13 07:13:57;;;;;;;9.07;1.33;;;4.70;89.00;;;;;;6245565;23;20020;-79
2021/04/13 07:16:40;;;;;;;16.83;2.05;;;4.80;88.80;;;;;;6244832;23;20016;-80
2021/04/13 07:19:20;;;;;;;10.65;1.98;;;4.90;88.30;;;;;;6246269;23;20016;-80
2021/04/13 07:22:14;;;;;;;17.48;1.80;;;5.10;88.20;;;;;;6246406;23;20078;-80
2021/04/13 07:24:56;;;;;;;17.70;1.80;;;5.20;87.60;;;;;;6245209;23;20440;-80
2021/04/13 07:27:44;;;;;;;11.95;1.98;;;5.30;87.30;;;;;;6245842;23;20016;-80
2021/04/13 07:30:33;;;;;;;12.63;1.60;;;5.40;87.20;;;;;;6244496;23;20020;-79
2021/04/13 07:33:09;;;;;;;13.23;1.33;;;5.50;86.80;;;;;;6237332;23;20016;-79
2021/04/13 07:35:38;;;;;;;10.00;1.23;;;5.60;86.20;;;;;;6245769;23;20515;-79
2021/04/13 07:38:24;;;;;;;10.05;1.50;;;5.70;86.00;;;;;;6244377;23;20020;-79
2021/04/13 07:40:58;;;;;;;12.15;1.30;;;5.80;85.40;;;;;;6246058;23;20526;-80
2021/04/13 07:43:33;;;;;;;12.38;1.50;;;5.90;85.10;;;;;;6246168;23;20039;-80
2021/04/13 07:46:15;;;;;;;14.68;1.60;;;6.00;84.80;;;;;;6245082;23;20336;-80
2021/04/13 07:49:15;;;;;;;10.02;1.33;;;6.10;84.50;;;;;;6246354;23;20016;-80
2021/04/13 07:51:56;;;;;;;13.10;1.60;;;6.20;84.00;;;;;;6245569;23;20012;-80
2021/04/13 07:54:54;;;;;;;9.80;1.20;;;6.30;83.80;;;;;;6245834;23;20023;-81
2021/04/13 07:57:31;;;;;;;7.43;1.08;;;6.50;83.50;;;;;;6245245;23;20051;-81
2021/04/13 08:00:08;;;;;;;6.70;1.20;;;6.50;83.20;;;;;;6243999;23;20020;-81
2021/04/13 08:02:34;;;;;;;11.90;1.60;;;6.60;82.70;;;;;;6245548;23;20020;-80
2021/04/13 08:05:00;;;;;;;12.13;1.48;;;6.70;82.60;;;;;;6245418;23;20327;-81
2021/04/13 08:07:37;;;;;;;11.13;1.30;;;6.80;82.40;;;;;;6241997;23;20062;-80
2021/04/13 08:10:27;;;;;;;8.82;1.20;;;6.90;81.40;;;;;;6241531;23;20020;-81
2021/04/13 08:12:59;;;;;;;13.27;1.33;;;7.00;80.30;;;;;;6244768;23;20016;-80
2021/04/13 08:15:48;;;;;;;10.23;1.23;;;7.10;80.50;;;;;;6245925;23;20046;-81
2021/04/13 08:18:43;;;;;;;12.40;1.30;;;7.10;79.60;;;;;;6245671;23;20020;-80
2021/04/13 08:21:25;;;;;;;6.13;1.15;;;7.20;79.40;;;;;;6244261;23;20016;-81
2021/04/13 08:23:53;;;;;;;8.40;1.25;;;7.30;78.60;;;;;;6245283;23;20018;-79
2021/04/13 08:26:37;;;;;;;11.98;1.55;;;7.30;78.50;;;;;;6243271;23;20455;-80
2021/04/13 08:29:43;;;;;;;8.43;1.20;;;7.40;78.40;;;;;;6244637;23;20018;-80
2021/04/13 08:35:25;;;;;;;8.60;1.23;;;7.50;78.70;;;;;;6244297;23;20039;-83
2021/04/13 08:38:15;;;;;;;9.65;1.45;;;7.50;78.20;;;;;;6245201;23;20047;-82
2021/04/13 08:41:00;;;;;;;9.45;1.40;;;7.60;77.90;;;;;;6244348;23;20024;-81
2021/04/13 08:43:38;;;;;;;8.57;1.73;;;7.60;77.60;;;;;;6245005;23;20535;-82
2021/04/13 08:46:27;;;;;;;9.27;1.52;;;7.60;78.20;;;;;;6231841;23;20020;-82
2021/04/13 08:49:21;;;;;;;11.38;1.85;;;7.60;77.10;;;;;;6215660;23;20051;-82
2021/04/13 08:51:50;;;;;;;6.70;1.08;;;7.70;77.70;;;;;;6188938;23;20013;-81
2021/04/13 08:54:46;;;;;;;11.48;1.20;;;7.70;78.10;;;;;;6235665;23;20486;-81
2021/04/13 08:57:28;;;;;;;7.55;0.93;;;7.70;77.60;;;;;;6239960;23;20534;-81
2021/04/13 08:59:58;;;;;;;6.80;0.90;;;7.80;76.80;;;;;;6240118;23;20044;-83
2021/04/13 09:02:31;;;;;;;6.10;0.90;;;7.90;76.50;;;;;;6243959;23;20012;-82
2021/04/13 09:05:11;;;;;;;6.55;1.08;;;7.90;77.10;;;;;;6244825;23;20020;-82
2021/04/13 09:07:45;;;;;;;7.50;0.90;;;7.90;78.20;;;;;;6238903;22;20046;-85
2021/04/13 09:10:35;;;;;;;7.40;1.17;;;7.90;78.40;;;;;;6240457;23;20127;-82
2021/04/13 09:13:13;;;;;;;6.60;1.50;;;7.90;78.70;;;;;;6243650;23;20020;-82
2021/04/13 09:16:06;;;;;;;8.50;1.23;;;7.80;79.00;;;;;;6244536;23;20027;-82
2021/04/13 09:18:44;;;;;;;9.30;1.00;;;7.80;80.00;;;;;;6244299;23;20504;-82
2021/04/13 09:21:34;;;;;;;8.05;1.05;;;7.80;80.40;;;;;;6241092;23;20447;-82
2021/04/13 09:24:15;;;;;;;10.15;1.27;;;7.80;80.50;;;;;;6244506;23;20024;-82
2021/04/13 09:26:43;;;;;;;9.15;1.10;;;7.90;80.80;;;;;;6246843;23;20083;-83
2021/04/13 09:29:28;;;;;;;8.98;0.90;;;7.90;80.40;;;;;;6247144;23;20038;-84
2021/04/13 09:31:59;;;;;;;5.00;0.93;;;8.00;79.80;;;;;;6239939;23;20016;-83
2021/04/13 09:34:47;;;;;;;4.70;1.23;;;8.00;79.50;;;;;;6243734;23;20369;-83
2021/04/13 09:37:58;;;;;;;6.05;1.00;;;8.00;79.50;;;;;;6242902;23;20023;-83
2021/04/13 09:41:02;;;;;;;7.15;1.05;;;8.00;79.30;;;;;;6239174;23;20031;-83
2021/04/13 09:43:37;;;;;;;8.68;1.27;;;8.00;78.40;;;;;;6244743;23;20012;-84
2021/04/13 09:46:14;;;;;;;;;;;8.00;78.30;;;;;;6245977;23;20344;-84
2021/04/13 09:49:03;;;;;;;10.23;1.40;;;8.00;77.40;;;;;;6244172;23;20359;-85
2021/04/13 09:52:06;;;;;;;7.97;1.10;;;8.10;78.30;;;;;;6242880;23;20114;-84
2021/04/13 09:55:15;;;;;;;7.35;1.15;;;8.20;77.30;;;;;;6244422;23;20084;-84
2021/04/13 09:58:04;;;;;;;6.18;1.10;;;8.40;74.50;;;;;;6233457;23;20510;-83
2021/04/13 10:00:49;;;;;;;7.63;1.00;;;8.40;75.00;;;;;;6245089;23;20020;-84
2021/04/13 10:03:30;;;;;;;4.15;0.90;;;8.50;75.10;;;;;;6237683;23;20023;-84
2021/04/13 10:06:43;;;;;;;6.88;1.10;;;8.50;75.30;;;;;;6243397;23;20134;-83
2021/04/13 10:15:55;;;;;;;6.85;1.10;;;8.60;74.30;;;;;;6213281;23;20025;-84
2021/04/13 10:19:08;;;;;;;7.80;1.10;;;8.60;74.10;;;;;;6214221;23;20028;-84
2021/04/13 10:22:23;;;;;;;9.40;1.10;;;8.70;73.50;;;;;;6216764;23;20071;-84
2021/04/13 10:26:00;;;;;;;6.45;1.00;;;8.80;72.00;;;;;;6216393;23;20035;-82
2021/04/13 10:28:44;;;;;;;5.38;1.23;;;9.00;70.10;;;;;;6188938;23;20394;-82
2021/04/13 10:31:52;;;;;;;6.13;0.90;;;9.10;70.50;;;;;;6211153;23;20032;-83
2021/04/13 10:35:26;;;;;;;5.53;1.00;;;9.10;68.10;;;;;;6206965;23;20047;-83
2021/04/13 10:37:58;;;;;;;5.78;0.93;;;9.20;69.00;;;;;;6195252;23;20043;-84
2021/04/13 10:41:04;;;;;;;5.60;0.90;;;9.30;69.60;;;;;;6215322;23;20017;-82
2021/04/13 10:44:08;;;;;;;6.70;1.05;;;9.40;69.00;;;;;;6215302;23;20025;-84
2021/04/13 10:47:28;;;;;;;4.55;0.65;;;9.60;68.40;;;;;;6216494;23;20020;-83
2021/04/13 10:50:19;;;;;;;3.97;0.73;;;9.70;68.30;;;;;;6216092;23;20091;-81
2021/04/13 10:53:24;;;;;;;5.75;0.73;;;9.80;67.80;;;;;;6216317;23;20340;-82
2021/04/13 10:56:12;;;;;;;5.88;0.95;;;9.90;65.60;;;;;;6214831;23;20032;-81
2021/04/13 10:59:04;;;;;;;4.65;0.82;;;9.90;67.20;;;;;;6216183;23;20013;-84
2021/04/13 11:01:49;;;;;;;6.22;0.95;;;10.00;64.90;;;;;;6212226;23;20390;-82
2021/04/13 11:04:50;;;;;;;5.20;0.77;;;10.00;67.00;;;;;;6215527;23;20012;-84
2021/04/13 11:07:41;;;;;;;6.85;1.08;;;10.00;67.50;;;;;;6215665;23;20095;-82
2021/04/13 11:11:04;;;;;;;4.57;0.82;;;10.00;67.70;;;;;;6209071;23;20329;-83
2021/04/13 11:13:32;;;;;;;4.22;1.05;;;10.00;68.20;;;;;;6215485;23;20025;-82
2021/04/13 11:16:26;;;;;;;7.15;0.82;;;9.90;69.60;;;;;;6215440;23;20020;-84
2021/04/13 11:19:05;;;;;;;4.45;0.80;;;9.90;70.70;;;;;;6216101;23;20024;-84
2021/04/13 11:21:58;;;;;;;6.20;0.90;;;9.90;72.20;;;;;;6216355;23;20333;-83
2021/04/13 11:24:39;;;;;;;5.78;0.90;;;9.90;72.40;;;;;;6214973;23;20021;-83
2021/04/13 11:27:26;;;;;;;5.28;0.73;;;10.00;72.30;;;;;;6215753;23;20017;-83
2021/04/13 11:30:15;;;;;;;6.70;1.10;;;9.90;72.20;;;;;;6203881;23;20013;-82
2021/04/13 11:33:01;;;;;;;6.43;1.05;;;9.90;72.50;;;;;;6214195;23;20032;-83
2021/04/13 11:35:37;;;;;;;10.25;1.70;;;10.00;71.60;;;;;;6214913;23;20020;-84
2021/04/13 11:38:21;;;;;;;6.63;1.13;;;10.00;71.10;;;;;;6209200;23;20016;-81
2021/04/13 11:41:00;;;;;;;7.03;1.02;;;10.10;70.80;;;;;;6214418;23;20445;-80
2021/04/13 11:43:33;;;;;;;6.18;1.40;;;10.20;71.70;;;;;;6214743;23;20495;-81
2021/04/13 11:46:08;;;;;;;7.07;1.25;;;10.20;71.60;;;;;;6215443;23;20021;-83
2021/04/13 11:48:59;;;;;;;4.85;0.88;;;10.30;70.70;;;;;;6203527;23;20344;-83
2021/04/13 11:51:28;;;;;;;6.10;1.00;;;10.30;71.80;;;;;;6209975;23;20023;-82
2021/04/13 11:54:32;;;;;;;4.90;1.10;;;10.30;73.00;;;;;;6215802;23;20048;-82
2021/04/13 11:57:18;;;;;;;4.80;0.93;;;10.30;70.60;;;;;;6214711;23;20456;-83
2021/04/13 12:00:09;;;;;;;6.00;1.20;;;10.30;71.40;;;;;;6206401;23;20024;-82
2021/04/13 12:03:00;;;;;;;7.05;1.15;;;10.30;70.60;;;;;;6215030;23;20016;-81
2021/04/13 12:05:31;;;;;;;6.97;0.77;;;10.40;72.80;;;;;;6213998;23;20055;-81
2021/04/13 12:08:07;;;;;;;11.98;1.17;;;10.40;71.20;;;;;;6214365;23;20017;-82
2021/04/13 12:10:33;;;;;;;4.25;0.90;;;10.40;69.60;;;;;;6213906;23;20392;-81
2021/04/13 12:13:01;;;;;;;6.53;0.80;;;10.30;68.30;;;;;;6214395;23;20092;-81
2021/04/13 12:15:26;;;;;;;4.43;0.88;;;10.30;68.00;;;;;;6214782;23;20472;-82
2021/04/13 12:17:54;;;;;;;7.07;0.93;;;10.30;67.30;;;;;;6215383;23;20111;-81
2021/04/13 12:20:30;;;;;;;6.32;0.90;;;10.30;65.40;;;;;;6182888;23;20075;-81
2021/04/13 12:22:58;;;;;;;2.55;0.60;;;10.30;66.10;;;;;;6184317;23;20056;-82
2021/04/13 12:25:37;;;;;;;4.05;0.80;;;10.30;66.40;;;;;;6183722;23;20484;-81
2021/04/13 12:28:15;;;;;;;6.72;1.30;;;10.30;65.40;;;;;;6184952;23;20017;-82
2021/04/13 12:30:41;;;;;;;6.15;0.77;;;10.30;68.10;;;;;;6183425;23;20020;-83
2021/04/13 12:33:10;;;;;;;3.88;0.77;;;10.40;67.80;;;;;;6178996;23;20404;-82
2021/04/13 12:35:57;;;;;;;3.53;0.82;;;10.40;67.40;;;;;;6177076;23;20072;-82
2021/04/13 12:38:46;;;;;;;6.63;1.23;;;10.50;64.30;;;;;;6184972;23;20020;-82
2021/04/13 12:41:17;;;;;;;4.53;0.80;;;10.50;63.50;;;;;;6183841;23;20322;-81
2021/04/13 12:43:59;;;;;;;7.47;1.30;;;10.50;67.70;;;;;;6185257;23;20069;-81
2021/04/13 12:46:36;;;;;;;8.05;2.47;;;10.50;67.40;;;;;;6183614;23;20032;-81
2021/04/13 12:49:12;;;;;;;3.78;0.85;;;10.50;67.60;;;;;;6170617;23;20021;-82
2021/04/13 12:52:05;;;;;;;3.60;0.80;;;10.60;69.50;;;;;;6184822;23;20028;-81
2021/04/13 12:54:36;;;;;;;4.95;1.10;;;10.70;68.80;;;;;;6180199;23;20019;-82
2021/04/13 12:57:27;;;;;;;4.75;0.77;;;10.70;67.50;;;;;;6201548;23;20413;-81
2021/04/13 13:00:08;;;;;;;6.20;1.40;;;10.70;65.10;;;;;;6213603;23;20016;-81
2021/04/13 13:02:39;;;;;;;4.80;0.88;;;10.60;64.30;;;;;;6204482;23;20626;-81
2021/04/13 13:05:28;;;;;;;6.88;0.73;;;10.60;65.00;;;;;;6210547;23;20047;-80
2021/04/13 13:08:06;;;;;;;4.60;0.70;;;10.60;61.20;;;;;;6213271;23;20519;-80
2021/04/13 13:10:42;;;;;;;3.30;0.55;;;10.50;62.60;;;;;;6214027;23;20457;-80
2021/04/13 13:13:43;;;;;;;4.97;0.90;;;10.50;64.00;;;;;;6214643;23;20476;-80
2021/04/13 13:17:13;;;;;;;3.53;0.63;;;10.50;63.60;;;;;;6210930;23;20331;-81
2021/04/13 13:19:55;;;;;;;3.60;1.15;;;10.50;64.60;;;;;;6203209;23;20043;-81
2021/04/13 13:22:34;;;;;;;;;;;10.60;62.90;;;;;;6213002;23;20336;-80
2021/04/13 13:25:30;;;;;;;6.35;1.50;;;10.50;60.20;;;;;;6144413;23;19916;-80
2021/04/13 13:28:27;;;;;;;7.25;1.50;;;10.50;65.00;;;;;;6214896;23;20020;-80
2021/04/13 13:31:41;;;;;;;;;;;;;;;;;;;;;
2021/04/13 13:35:01;;;;;;;4.88;0.80;;;10.70;65.00;;;;;;6213717;23;20033;-80
2021/04/13 13:38:32;;;;;;;5.45;0.80;;;10.70;64.90;;;;;;6212912;23;20020;-80
2021/04/13 13:41:21;;;;;;;2.78;0.75;;;10.70;63.00;;;;;;6214859;23;20020;-79
2021/04/13 13:43:57;;;;;;;6.40;0.93;;;10.70;63.80;;;;;;6212301;23;20025;-80
2021/04/13 13:46:34;;;;;;;4.35;0.75;;;10.70;64.70;;;;;;6212382;23;20017;-80
2021/04/13 13:49:51;;;;;;;3.90;0.82;;;10.60;61.80;;;;;;6213525;23;20020;-80
2021/04/13 13:52:43;;;;;;;2.70;0.60;;;10.60;65.20;;;;;;6109481;23;20021;-80
2021/04/13 13:55:26;;;;;;;5.30;0.80;;;10.70;66.20;;;;;;6213656;23;20016;-80
2021/04/13 13:58:03;;;;;;;4.63;0.93;;;10.80;66.30;;;;;;6212156;23;20032;-80
2021/04/13 14:00:52;;;;;;;2.17;0.50;;;10.80;67.00;;;;;;6213067;23;20032;-80
2021/04/13 14:03:26;;;;;;;4.32;1.00;;;10.80;66.20;;;;;;6209464;23;20428;-80
2021/04/13 14:05:56;;;;;;;4.55;0.93;;;10.90;67.90;;;;;;6213416;23;20016;-81
2021/04/13 14:08:33;;;;;;;5.22;1.08;;;10.90;68.30;;;;;;6213950;23;20013;-81
2021/04/13 14:11:23;;;;;;;4.85;0.80;;;10.90;67.80;;;;;;6213810;23;20016;-80
2021/04/13 14:14:03;;;;;;;5.18;0.90;;;10.90;65.60;;;;;;6214250;23;20023;-81
2021/04/13 14:16:49;;;;;;;2.90;0.50;;;11.00;66.50;;;;;;6212563;23;20043;-80
2021/04/13 14:20:04;;;;;;;4.65;0.80;;;11.00;60.50;;;;;;6212514;23;20024;-82
2021/04/13 14:22:33;;;;;;;3.40;0.60;;;10.90;63.90;;;;;;6062102;23;20023;-80